sensor_id;sensor_type;location;lat;lon;timestamp;P1;durP1;ratioP1;P2;durP2;ratioP2
37943;SDS011;23767;42.024;23.086;2023-05-17T00:02:12;11.48;;;3.45;;
37943;SDS011;23767;42.024;23.086;2023-05-17T00:04:38;13.63;;;3.75;;
37943;SDS011;23767;42.024;23.086;2023-05-17T00:07:04;13.95;;;3.85;;
37943;SDS011;23767;42.024;23.086;2023-05-17T00:09:30;11.40;;;4.43;;
37943;SDS011;23767;42.024;23.086;2023-05-17T00:11:56;14.23;;;3.50;;
37943;SDS011;23767;42.024;23.086;2023-05-17T00:14:22;13.32;;;3.78;;
37943;SDS011;23767;42.024;23.086;2023-05-17T00:16:48;10.60;;;3.58;;
37943;SDS011;23767;42.024;23.086;2023-05-17T00:19:14;12.27;;;3.50;;
37943;SDS011;23767;42.024;23.086;2023-05-17T00:21:40;14.25;;;4.13;;
37943;SDS011;23767;42.024;23.086;2023-05-17T00:24:06;15.13;;;3.55;;
37943;SDS011;23767;42.024;23.086;2023-05-17T00:26:33;15.00;;;4.35;;
37943;SDS011;23767;42.024;23.086;2023-05-17T00:28:59;17.15;;;3.90;;
37943;SDS011;23767;42.024;23.086;2023-05-17T00:31:25;16.73;;;3.50;;
37943;SDS011;23767;42.024;23.086;2023-05-17T00:33:51;18.65;;;3.30;;
37943;SDS011;23767;42.024;23.086;2023-05-17T00:36:17;15.73;;;4.30;;
37943;SDS011;23767;42.024;23.086;2023-05-17T00:38:43;14.15;;;4.05;;
37943;SDS011;23767;42.024;23.086;2023-05-17T00:41:09;14.13;;;3.55;;
37943;SDS011;23767;42.024;23.086;2023-05-17T00:43:37;14.52;;;4.20;;
37943;SDS011;23767;42.024;23.086;2023-05-17T00:46:03;19.52;;;4.25;;
37943;SDS011;23767;42.024;23.086;2023-05-17T00:48:29;13.25;;;3.88;;
37943;SDS011;23767;42.024;23.086;2023-05-17T00:50:55;15.35;;;3.67;;
37943;SDS011;23767;42.024;23.086;2023-05-17T00:53:22;14.32;;;3.75;;
37943;SDS011;23767;42.024;23.086;2023-05-17T00:55:48;15.80;;;4.03;;
37943;SDS011;23767;42.024;23.086;2023-05-17T00:58:14;13.48;;;3.50;;
37943;SDS011;23767;42.024;23.086;2023-05-17T01:00:41;11.75;;;3.47;;
37943;SDS011;23767;42.024;23.086;2023-05-17T01:03:07;14.27;;;3.42;;
37943;SDS011;23767;42.024;23.086;2023-05-17T01:05:33;13.30;;;3.53;;
37943;SDS011;23767;42.024;23.086;2023-05-17T01:08:00;14.68;;;3.47;;
37943;SDS011;23767;42.024;23.086;2023-05-17T01:11:09;14.70;;;3.90;;
37943;SDS011;23767;42.024;23.086;2023-05-17T01:13:39;14.82;;;4.13;;
37943;SDS011;23767;42.024;23.086;2023-05-17T01:18:56;15.80;;;3.70;;
37943;SDS011;23767;42.024;23.086;2023-05-17T01:24:15;15.95;;;4.50;;
37943;SDS011;23767;42.024;23.086;2023-05-17T01:26:48;18.15;;;4.18;;
37943;SDS011;23767;42.024;23.086;2023-05-17T01:29:16;14.98;;;4.07;;
37943;SDS011;23767;42.024;23.086;2023-05-17T01:31:42;19.17;;;4.53;;
37943;SDS011;23767;42.024;23.086;2023-05-17T01:34:09;17.52;;;4.15;;
37943;SDS011;23767;42.024;23.086;2023-05-17T01:36:35;12.27;;;3.58;;
37943;SDS011;23767;42.024;23.086;2023-05-17T01:39:01;15.13;;;4.10;;
37943;SDS011;23767;42.024;23.086;2023-05-17T01:44:02;15.80;;;3.90;;
37943;SDS011;23767;42.024;23.086;2023-05-17T01:46:38;16.45;;;4.13;;
37943;SDS011;23767;42.024;23.086;2023-05-17T01:51:32;11.63;;;3.92;;
37943;SDS011;23767;42.024;23.086;2023-05-17T01:54:00;16.50;;;4.07;;
37943;SDS011;23767;42.024;23.086;2023-05-17T01:56:27;15.60;;;4.20;;
37943;SDS011;23767;42.024;23.086;2023-05-17T01:58:58;13.48;;;3.65;;
37943;SDS011;23767;42.024;23.086;2023-05-17T02:01:24;16.75;;;3.97;;
37943;SDS011;23767;42.024;23.086;2023-05-17T02:03:52;12.93;;;4.20;;
37943;SDS011;23767;42.024;23.086;2023-05-17T02:06:18;15.38;;;3.75;;
37943;SDS011;23767;42.024;23.086;2023-05-17T02:08:44;14.63;;;4.18;;
37943;SDS011;23767;42.024;23.086;2023-05-17T02:11:10;12.82;;;4.00;;
37943;SDS011;23767;42.024;23.086;2023-05-17T02:13:36;17.52;;;4.05;;
37943;SDS011;23767;42.024;23.086;2023-05-17T02:16:03;15.55;;;4.30;;
37943;SDS011;23767;42.024;23.086;2023-05-17T02:18:29;14.48;;;4.03;;
37943;SDS011;23767;42.024;23.086;2023-05-17T02:20:56;12.90;;;4.20;;
37943;SDS011;23767;42.024;23.086;2023-05-17T02:23:22;11.13;;;3.50;;
37943;SDS011;23767;42.024;23.086;2023-05-17T02:25:49;13.80;;;3.88;;
37943;SDS011;23767;42.024;23.086;2023-05-17T02:28:15;12.45;;;4.03;;
37943;SDS011;23767;42.024;23.086;2023-05-17T02:30:41;12.93;;;3.85;;
37943;SDS011;23767;42.024;23.086;2023-05-17T02:33:08;14.55;;;3.90;;
37943;SDS011;23767;42.024;23.086;2023-05-17T02:35:34;13.23;;;4.28;;
37943;SDS011;23767;42.024;23.086;2023-05-17T02:38:00;16.30;;;4.53;;
37943;SDS011;23767;42.024;23.086;2023-05-17T02:40:26;15.15;;;3.85;;
37943;SDS011;23767;42.024;23.086;2023-05-17T02:42:52;13.18;;;3.60;;
37943;SDS011;23767;42.024;23.086;2023-05-17T02:45:18;16.48;;;3.67;;
37943;SDS011;23767;42.024;23.086;2023-05-17T02:47:44;14.23;;;4.28;;
37943;SDS011;23767;42.024;23.086;2023-05-17T02:50:10;14.35;;;3.53;;
37943;SDS011;23767;42.024;23.086;2023-05-17T02:52:36;15.05;;;4.55;;
37943;SDS011;23767;42.024;23.086;2023-05-17T02:55:02;14.30;;;4.32;;
37943;SDS011;23767;42.024;23.086;2023-05-17T02:57:28;16.10;;;5.00;;
37943;SDS011;23767;42.024;23.086;2023-05-17T02:59:54;14.60;;;4.68;;
37943;SDS011;23767;42.024;23.086;2023-05-17T03:02:20;16.45;;;5.18;;
37943;SDS011;23767;42.024;23.086;2023-05-17T03:04:46;14.90;;;5.03;;
37943;SDS011;23767;42.024;23.086;2023-05-17T03:07:13;16.30;;;4.50;;
37943;SDS011;23767;42.024;23.086;2023-05-17T03:09:39;17.65;;;4.60;;
37943;SDS011;23767;42.024;23.086;2023-05-17T03:12:06;15.98;;;4.60;;
37943;SDS011;23767;42.024;23.086;2023-05-17T03:14:32;19.70;;;5.05;;
37943;SDS011;23767;42.024;23.086;2023-05-17T03:16:58;19.00;;;4.68;;
37943;SDS011;23767;42.024;23.086;2023-05-17T03:19:24;19.85;;;4.70;;
37943;SDS011;23767;42.024;23.086;2023-05-17T03:21:50;13.65;;;4.55;;
37943;SDS011;23767;42.024;23.086;2023-05-17T03:24:16;14.02;;;5.18;;
37943;SDS011;23767;42.024;23.086;2023-05-17T03:26:42;14.65;;;5.05;;
37943;SDS011;23767;42.024;23.086;2023-05-17T03:29:08;14.25;;;5.15;;
37943;SDS011;23767;42.024;23.086;2023-05-17T03:31:34;14.32;;;4.57;;
37943;SDS011;23767;42.024;23.086;2023-05-17T03:34:00;13.68;;;4.72;;
37943;SDS011;23767;42.024;23.086;2023-05-17T03:36:26;14.55;;;4.40;;
37943;SDS011;23767;42.024;23.086;2023-05-17T03:38:53;15.88;;;5.03;;
37943;SDS011;23767;42.024;23.086;2023-05-17T03:41:19;12.73;;;4.05;;
37943;SDS011;23767;42.024;23.086;2023-05-17T03:43:45;15.02;;;4.40;;
37943;SDS011;23767;42.024;23.086;2023-05-17T03:46:11;17.08;;;5.25;;
37943;SDS011;23767;42.024;23.086;2023-05-17T03:48:38;14.85;;;4.65;;
37943;SDS011;23767;42.024;23.086;2023-05-17T03:51:04;19.60;;;4.90;;
37943;SDS011;23767;42.024;23.086;2023-05-17T03:53:30;13.52;;;4.70;;
37943;SDS011;23767;42.024;23.086;2023-05-17T03:55:56;17.90;;;5.00;;
37943;SDS011;23767;42.024;23.086;2023-05-17T03:58:22;20.88;;;5.25;;
37943;SDS011;23767;42.024;23.086;2023-05-17T04:00:48;23.13;;;5.32;;
37943;SDS011;23767;42.024;23.086;2023-05-17T04:03:14;20.88;;;5.22;;
37943;SDS011;23767;42.024;23.086;2023-05-17T04:05:40;17.60;;;4.55;;
37943;SDS011;23767;42.024;23.086;2023-05-17T04:08:06;19.67;;;4.72;;
37943;SDS011;23767;42.024;23.086;2023-05-17T04:10:32;17.02;;;4.50;;
37943;SDS011;23767;42.024;23.086;2023-05-17T04:12:59;13.35;;;4.20;;
37943;SDS011;23767;42.024;23.086;2023-05-17T04:15:25;21.33;;;4.85;;
37943;SDS011;23767;42.024;23.086;2023-05-17T04:17:51;18.50;;;4.47;;
37943;SDS011;23767;42.024;23.086;2023-05-17T04:20:17;22.08;;;5.25;;
37943;SDS011;23767;42.024;23.086;2023-05-17T04:22:43;19.52;;;4.60;;
37943;SDS011;23767;42.024;23.086;2023-05-17T04:25:09;22.25;;;5.72;;
37943;SDS011;23767;42.024;23.086;2023-05-17T04:27:36;14.85;;;5.07;;
37943;SDS011;23767;42.024;23.086;2023-05-17T04:30:02;14.43;;;5.25;;
37943;SDS011;23767;42.024;23.086;2023-05-17T04:32:28;27.35;;;6.18;;
37943;SDS011;23767;42.024;23.086;2023-05-17T04:34:54;16.48;;;4.72;;
37943;SDS011;23767;42.024;23.086;2023-05-17T04:37:20;16.33;;;4.57;;
37943;SDS011;23767;42.024;23.086;2023-05-17T04:39:46;19.95;;;5.13;;
37943;SDS011;23767;42.024;23.086;2023-05-17T04:42:12;19.85;;;5.43;;
37943;SDS011;23767;42.024;23.086;2023-05-17T04:44:38;13.40;;;4.57;;
37943;SDS011;23767;42.024;23.086;2023-05-17T04:47:05;14.05;;;4.20;;
37943;SDS011;23767;42.024;23.086;2023-05-17T04:49:32;24.20;;;5.82;;
37943;SDS011;23767;42.024;23.086;2023-05-17T04:51:58;19.67;;;4.50;;
37943;SDS011;23767;42.024;23.086;2023-05-17T04:54:24;15.57;;;4.05;;
37943;SDS011;23767;42.024;23.086;2023-05-17T04:56:51;13.35;;;4.10;;
37943;SDS011;23767;42.024;23.086;2023-05-17T04:59:17;15.10;;;3.80;;
37943;SDS011;23767;42.024;23.086;2023-05-17T05:01:43;21.08;;;4.05;;
37943;SDS011;23767;42.024;23.086;2023-05-17T05:04:09;16.17;;;4.13;;
37943;SDS011;23767;42.024;23.086;2023-05-17T05:06:35;14.43;;;4.00;;
37943;SDS011;23767;42.024;23.086;2023-05-17T05:09:01;11.77;;;3.83;;
37943;SDS011;23767;42.024;23.086;2023-05-17T05:11:28;15.98;;;4.65;;
37943;SDS011;23767;42.024;23.086;2023-05-17T05:13:54;24.55;;;5.20;;
37943;SDS011;23767;42.024;23.086;2023-05-17T05:16:20;25.55;;;5.68;;
37943;SDS011;23767;42.024;23.086;2023-05-17T05:18:46;23.40;;;5.15;;
37943;SDS011;23767;42.024;23.086;2023-05-17T05:21:12;22.45;;;5.15;;
37943;SDS011;23767;42.024;23.086;2023-05-17T05:23:38;17.17;;;4.10;;
37943;SDS011;23767;42.024;23.086;2023-05-17T05:26:04;15.70;;;4.32;;
37943;SDS011;23767;42.024;23.086;2023-05-17T05:28:30;17.77;;;4.18;;
37943;SDS011;23767;42.024;23.086;2023-05-17T05:30:57;13.27;;;3.85;;
37943;SDS011;23767;42.024;23.086;2023-05-17T05:33:24;13.60;;;3.85;;
37943;SDS011;23767;42.024;23.086;2023-05-17T05:35:50;15.70;;;4.57;;
37943;SDS011;23767;42.024;23.086;2023-05-17T05:38:16;15.45;;;4.18;;
37943;SDS011;23767;42.024;23.086;2023-05-17T05:40:44;18.20;;;4.63;;
37943;SDS011;23767;42.024;23.086;2023-05-17T05:43:11;15.88;;;4.65;;
37943;SDS011;23767;42.024;23.086;2023-05-17T05:45:37;17.80;;;4.85;;
37943;SDS011;23767;42.024;23.086;2023-05-17T05:48:09;20.48;;;6.03;;
37943;SDS011;23767;42.024;23.086;2023-05-17T05:50:36;17.98;;;5.88;;
37943;SDS011;23767;42.024;23.086;2023-05-17T05:53:02;17.65;;;5.00;;
37943;SDS011;23767;42.024;23.086;2023-05-17T05:55:28;20.70;;;5.50;;
37943;SDS011;23767;42.024;23.086;2023-05-17T05:57:54;18.83;;;6.00;;
37943;SDS011;23767;42.024;23.086;2023-05-17T06:00:21;18.23;;;5.65;;
37943;SDS011;23767;42.024;23.086;2023-05-17T06:02:47;23.33;;;5.75;;
37943;SDS011;23767;42.024;23.086;2023-05-17T06:05:13;19.13;;;5.32;;
37943;SDS011;23767;42.024;23.086;2023-05-17T06:07:39;19.58;;;5.50;;
37943;SDS011;23767;42.024;23.086;2023-05-17T06:10:05;22.90;;;5.72;;
37943;SDS011;23767;42.024;23.086;2023-05-17T06:26:31;11.68;;;4.72;;
37943;SDS011;23767;42.024;23.086;2023-05-17T06:28:57;12.98;;;4.50;;
37943;SDS011;23767;42.024;23.086;2023-05-17T06:31:23;14.93;;;4.18;;
37943;SDS011;23767;42.024;23.086;2023-05-17T06:33:49;12.02;;;4.32;;
37943;SDS011;23767;42.024;23.086;2023-05-17T06:36:15;14.93;;;4.43;;
37943;SDS011;23767;42.024;23.086;2023-05-17T06:38:41;14.93;;;4.93;;
37943;SDS011;23767;42.024;23.086;2023-05-17T06:41:07;13.50;;;4.28;;
37943;SDS011;23767;42.024;23.086;2023-05-17T06:43:34;15.50;;;4.72;;
37943;SDS011;23767;42.024;23.086;2023-05-17T06:46:00;10.38;;;4.88;;
37943;SDS011;23767;42.024;23.086;2023-05-17T06:48:26;15.48;;;4.88;;
37943;SDS011;23767;42.024;23.086;2023-05-17T06:50:52;18.73;;;5.10;;
37943;SDS011;23767;42.024;23.086;2023-05-17T06:53:19;13.35;;;4.35;;
37943;SDS011;23767;42.024;23.086;2023-05-17T06:55:45;12.27;;;4.78;;
37943;SDS011;23767;42.024;23.086;2023-05-17T06:58:11;17.48;;;5.32;;
37943;SDS011;23767;42.024;23.086;2023-05-17T07:00:37;14.93;;;4.60;;
37943;SDS011;23767;42.024;23.086;2023-05-17T07:03:03;20.83;;;5.70;;
37943;SDS011;23767;42.024;23.086;2023-05-17T07:05:29;18.08;;;4.95;;
37943;SDS011;23767;42.024;23.086;2023-05-17T07:07:57;14.20;;;5.22;;
37943;SDS011;23767;42.024;23.086;2023-05-17T07:10:23;13.32;;;4.93;;
37943;SDS011;23767;42.024;23.086;2023-05-17T07:12:49;17.02;;;5.80;;
37943;SDS011;23767;42.024;23.086;2023-05-17T07:15:15;13.07;;;4.72;;
37943;SDS011;23767;42.024;23.086;2023-05-17T07:17:41;16.05;;;5.25;;
37943;SDS011;23767;42.024;23.086;2023-05-17T07:20:08;12.90;;;5.03;;
37943;SDS011;23767;42.024;23.086;2023-05-17T07:22:35;15.02;;;5.63;;
37943;SDS011;23767;42.024;23.086;2023-05-17T07:25:01;16.17;;;5.15;;
37943;SDS011;23767;42.024;23.086;2023-05-17T07:27:27;14.23;;;5.57;;
37943;SDS011;23767;42.024;23.086;2023-05-17T07:29:53;13.52;;;5.60;;
37943;SDS011;23767;42.024;23.086;2023-05-17T07:32:19;18.65;;;5.88;;
37943;SDS011;23767;42.024;23.086;2023-05-17T07:34:45;15.88;;;5.80;;
37943;SDS011;23767;42.024;23.086;2023-05-17T07:37:11;13.85;;;5.15;;
37943;SDS011;23767;42.024;23.086;2023-05-17T07:39:37;18.40;;;5.90;;
37943;SDS011;23767;42.024;23.086;2023-05-17T07:42:03;13.45;;;5.05;;
37943;SDS011;23767;42.024;23.086;2023-05-17T07:44:30;16.80;;;6.38;;
37943;SDS011;23767;42.024;23.086;2023-05-17T07:46:56;14.15;;;6.13;;
37943;SDS011;23767;42.024;23.086;2023-05-17T07:49:22;14.00;;;5.43;;
37943;SDS011;23767;42.024;23.086;2023-05-17T07:51:48;15.30;;;5.70;;
37943;SDS011;23767;42.024;23.086;2023-05-17T07:54:21;16.33;;;5.65;;
37943;SDS011;23767;42.024;23.086;2023-05-17T07:56:51;13.27;;;4.35;;
37943;SDS011;23767;42.024;23.086;2023-05-17T07:59:19;13.18;;;4.47;;
37943;SDS011;23767;42.024;23.086;2023-05-17T08:01:45;11.20;;;4.47;;
37943;SDS011;23767;42.024;23.086;2023-05-17T08:04:11;17.77;;;5.07;;
37943;SDS011;23767;42.024;23.086;2023-05-17T08:06:41;14.35;;;4.50;;
37943;SDS011;23767;42.024;23.086;2023-05-17T08:09:07;13.98;;;4.80;;
37943;SDS011;23767;42.024;23.086;2023-05-17T08:11:33;13.93;;;4.25;;
37943;SDS011;23767;42.024;23.086;2023-05-17T08:13:59;11.82;;;4.28;;
37943;SDS011;23767;42.024;23.086;2023-05-17T08:16:25;15.27;;;4.53;;
37943;SDS011;23767;42.024;23.086;2023-05-17T08:18:51;16.38;;;4.10;;
37943;SDS011;23767;42.024;23.086;2023-05-17T08:21:17;14.30;;;3.75;;
37943;SDS011;23767;42.024;23.086;2023-05-17T08:23:44;10.13;;;4.07;;
37943;SDS011;23767;42.024;23.086;2023-05-17T08:26:10;13.73;;;4.53;;
37943;SDS011;23767;42.024;23.086;2023-05-17T08:28:37;13.60;;;4.32;;
37943;SDS011;23767;42.024;23.086;2023-05-17T08:31:03;15.25;;;4.82;;
37943;SDS011;23767;42.024;23.086;2023-05-17T08:33:29;14.18;;;4.82;;
37943;SDS011;23767;42.024;23.086;2023-05-17T08:35:55;14.32;;;4.53;;
37943;SDS011;23767;42.024;23.086;2023-05-17T08:38:23;15.35;;;5.57;;
37943;SDS011;23767;42.024;23.086;2023-05-17T08:40:55;13.43;;;4.60;;
37943;SDS011;23767;42.024;23.086;2023-05-17T08:43:23;14.07;;;5.38;;
37943;SDS011;23767;42.024;23.086;2023-05-17T08:45:50;13.55;;;4.57;;
37943;SDS011;23767;42.024;23.086;2023-05-17T08:48:17;11.82;;;4.30;;
37943;SDS011;23767;42.024;23.086;2023-05-17T08:50:47;13.90;;;5.20;;
37943;SDS011;23767;42.024;23.086;2023-05-17T08:53:15;10.98;;;5.07;;
37943;SDS011;23767;42.024;23.086;2023-05-17T08:55:43;11.20;;;4.43;;
37943;SDS011;23767;42.024;23.086;2023-05-17T08:58:12;10.82;;;4.45;;
37943;SDS011;23767;42.024;23.086;2023-05-17T09:00:39;15.57;;;6.05;;
37943;SDS011;23767;42.024;23.086;2023-05-17T09:03:06;9.93;;;4.72;;
37943;SDS011;23767;42.024;23.086;2023-05-17T09:05:32;17.20;;;5.30;;
37943;SDS011;23767;42.024;23.086;2023-05-17T09:07:58;16.92;;;4.95;;
37943;SDS011;23767;42.024;23.086;2023-05-17T09:10:24;15.50;;;5.55;;
37943;SDS011;23767;42.024;23.086;2023-05-17T09:12:50;11.07;;;4.13;;
37943;SDS011;23767;42.024;23.086;2023-05-17T09:15:18;15.63;;;4.80;;
37943;SDS011;23767;42.024;23.086;2023-05-17T09:17:51;11.00;;;4.10;;
37943;SDS011;23767;42.024;23.086;2023-05-17T09:20:22;12.57;;;4.22;;
37943;SDS011;23767;42.024;23.086;2023-05-17T09:22:49;12.93;;;4.38;;
37943;SDS011;23767;42.024;23.086;2023-05-17T09:25:18;14.68;;;4.72;;
37943;SDS011;23767;42.024;23.086;2023-05-17T09:27:44;16.35;;;4.32;;
37943;SDS011;23767;42.024;23.086;2023-05-17T09:30:10;17.15;;;4.30;;
37943;SDS011;23767;42.024;23.086;2023-05-17T09:32:41;14.25;;;4.38;;
37943;SDS011;23767;42.024;23.086;2023-05-17T09:35:11;10.48;;;4.22;;
37943;SDS011;23767;42.024;23.086;2023-05-17T09:37:37;13.05;;;4.32;;
37943;SDS011;23767;42.024;23.086;2023-05-17T09:40:04;17.35;;;4.70;;
37943;SDS011;23767;42.024;23.086;2023-05-17T09:42:32;12.93;;;4.10;;
37943;SDS011;23767;42.024;23.086;2023-05-17T09:45:01;12.23;;;4.10;;
37943;SDS011;23767;42.024;23.086;2023-05-17T09:47:30;13.25;;;3.92;;
37943;SDS011;23767;42.024;23.086;2023-05-17T09:50:00;16.05;;;4.28;;
37943;SDS011;23767;42.024;23.086;2023-05-17T09:52:28;11.70;;;4.05;;
37943;SDS011;23767;42.024;23.086;2023-05-17T09:54:56;12.15;;;4.20;;
37943;SDS011;23767;42.024;23.086;2023-05-17T09:57:23;13.13;;;3.90;;
37943;SDS011;23767;42.024;23.086;2023-05-17T09:59:50;12.68;;;4.18;;
37943;SDS011;23767;42.024;23.086;2023-05-17T10:02:18;16.20;;;3.92;;
37943;SDS011;23767;42.024;23.086;2023-05-17T10:04:45;13.65;;;4.10;;
37943;SDS011;23767;42.024;23.086;2023-05-17T10:07:15;12.98;;;4.10;;
37943;SDS011;23767;42.024;23.086;2023-05-17T10:09:44;14.55;;;4.53;;
37943;SDS011;23767;42.024;23.086;2023-05-17T10:12:11;13.18;;;4.47;;
37943;SDS011;23767;42.024;23.086;2023-05-17T10:14:40;12.57;;;4.05;;
37943;SDS011;23767;42.024;23.086;2023-05-17T10:17:08;12.73;;;3.92;;
37943;SDS011;23767;42.024;23.086;2023-05-17T10:19:35;10.77;;;3.60;;
37943;SDS011;23767;42.024;23.086;2023-05-17T10:22:01;13.43;;;3.72;;
37943;SDS011;23767;42.024;23.086;2023-05-17T10:24:28;9.02;;;3.25;;
37943;SDS011;23767;42.024;23.086;2023-05-17T10:26:55;10.85;;;3.90;;
37943;SDS011;23767;42.024;23.086;2023-05-17T10:29:21;13.15;;;3.55;;
37943;SDS011;23767;42.024;23.086;2023-05-17T10:31:48;13.32;;;3.95;;
37943;SDS011;23767;42.024;23.086;2023-05-17T10:34:15;15.13;;;3.80;;
37943;SDS011;23767;42.024;23.086;2023-05-17T10:36:42;11.70;;;4.10;;
37943;SDS011;23767;42.024;23.086;2023-05-17T10:39:09;14.27;;;4.28;;
37943;SDS011;23767;42.024;23.086;2023-05-17T10:41:36;14.68;;;3.60;;
37943;SDS011;23767;42.024;23.086;2023-05-17T10:44:03;13.82;;;3.92;;
37943;SDS011;23767;42.024;23.086;2023-05-17T10:46:31;10.57;;;2.97;;
37943;SDS011;23767;42.024;23.086;2023-05-17T10:48:58;13.00;;;3.20;;
37943;SDS011;23767;42.024;23.086;2023-05-17T10:51:25;13.85;;;3.72;;
37943;SDS011;23767;42.024;23.086;2023-05-17T10:56:30;16.38;;;3.75;;
37943;SDS011;23767;42.024;23.086;2023-05-17T10:59:16;13.13;;;3.35;;
37943;SDS011;23767;42.024;23.086;2023-05-17T11:04:25;11.75;;;3.35;;
37943;SDS011;23767;42.024;23.086;2023-05-17T11:06:52;11.18;;;3.47;;
37943;SDS011;23767;42.024;23.086;2023-05-17T11:09:20;8.15;;;2.88;;
37943;SDS011;23767;42.024;23.086;2023-05-17T11:17:17;13.43;;;3.23;;
37943;SDS011;23767;42.024;23.086;2023-05-17T11:22:21;13.50;;;3.67;;
37943;SDS011;23767;42.024;23.086;2023-05-17T11:24:47;13.35;;;4.07;;
37943;SDS011;23767;42.024;23.086;2023-05-17T11:27:17;9.57;;;3.95;;
37943;SDS011;23767;42.024;23.086;2023-05-17T11:29:46;16.02;;;4.15;;
37943;SDS011;23767;42.024;23.086;2023-05-17T11:32:12;12.45;;;4.20;;
37943;SDS011;23767;42.024;23.086;2023-05-17T11:34:39;16.35;;;5.10;;
37943;SDS011;23767;42.024;23.086;2023-05-17T11:37:09;13.85;;;5.18;;
37943;SDS011;23767;42.024;23.086;2023-05-17T11:39:36;10.00;;;4.33;;
37943;SDS011;23767;42.024;23.086;2023-05-17T11:42:02;16.38;;;5.38;;
37943;SDS011;23767;42.024;23.086;2023-05-17T11:44:29;14.05;;;5.35;;
37943;SDS011;23767;42.024;23.086;2023-05-17T11:47:05;15.02;;;5.05;;
37943;SDS011;23767;42.024;23.086;2023-05-17T11:49:33;12.20;;;5.35;;
37943;SDS011;23767;42.024;23.086;2023-05-17T11:52:01;14.35;;;4.30;;
37943;SDS011;23767;42.024;23.086;2023-05-17T11:54:27;12.45;;;4.43;;
37943;SDS011;23767;42.024;23.086;2023-05-17T11:56:55;15.75;;;4.60;;
37943;SDS011;23767;42.024;23.086;2023-05-17T11:59:21;13.48;;;4.25;;
37943;SDS011;23767;42.024;23.086;2023-05-17T12:01:48;13.88;;;4.35;;
37943;SDS011;23767;42.024;23.086;2023-05-17T12:04:21;16.85;;;4.10;;
37943;SDS011;23767;42.024;23.086;2023-05-17T12:06:49;12.93;;;4.10;;
37943;SDS011;23767;42.024;23.086;2023-05-17T12:09:15;15.60;;;4.93;;
37943;SDS011;23767;42.024;23.086;2023-05-17T12:11:41;14.07;;;4.10;;
37943;SDS011;23767;42.024;23.086;2023-05-17T12:14:08;10.02;;;3.70;;
37943;SDS011;23767;42.024;23.086;2023-05-17T12:16:36;11.88;;;4.15;;
37943;SDS011;23767;42.024;23.086;2023-05-17T12:19:04;12.38;;;3.75;;
37943;SDS011;23767;42.024;23.086;2023-05-17T12:21:41;11.25;;;3.17;;
37943;SDS011;23767;42.024;23.086;2023-05-17T12:24:07;14.65;;;3.35;;
37943;SDS011;23767;42.024;23.086;2023-05-17T12:26:33;9.68;;;3.25;;
37943;SDS011;23767;42.024;23.086;2023-05-17T12:29:00;11.05;;;3.38;;
37943;SDS011;23767;42.024;23.086;2023-05-17T12:31:32;10.20;;;3.00;;
37943;SDS011;23767;42.024;23.086;2023-05-17T12:33:59;7.97;;;2.90;;
37943;SDS011;23767;42.024;23.086;2023-05-17T12:36:28;10.40;;;3.47;;
37943;SDS011;23767;42.024;23.086;2023-05-17T12:38:55;14.43;;;3.28;;
37943;SDS011;23767;42.024;23.086;2023-05-17T12:41:22;17.45;;;3.58;;
37943;SDS011;23767;42.024;23.086;2023-05-17T12:43:50;12.93;;;3.15;;
37943;SDS011;23767;42.024;23.086;2023-05-17T12:46:17;11.02;;;3.03;;
37943;SDS011;23767;42.024;23.086;2023-05-17T12:48:44;9.18;;;2.75;;
37943;SDS011;23767;42.024;23.086;2023-05-17T12:51:15;8.02;;;2.28;;
37943;SDS011;23767;42.024;23.086;2023-05-17T12:53:42;11.85;;;2.92;;
37943;SDS011;23767;42.024;23.086;2023-05-17T12:56:13;10.73;;;2.72;;
37943;SDS011;23767;42.024;23.086;2023-05-17T12:58:39;9.20;;;2.22;;
37943;SDS011;23767;42.024;23.086;2023-05-17T13:01:05;12.65;;;2.97;;
37943;SDS011;23767;42.024;23.086;2023-05-17T13:03:34;8.80;;;2.53;;
37943;SDS011;23767;42.024;23.086;2023-05-17T13:06:04;9.65;;;3.22;;
37943;SDS011;23767;42.024;23.086;2023-05-17T13:08:32;8.43;;;2.97;;
37943;SDS011;23767;42.024;23.086;2023-05-17T13:25:25;12.13;;;3.88;;
37943;SDS011;23767;42.024;23.086;2023-05-17T13:27:51;9.23;;;3.30;;
37943;SDS011;23767;42.024;23.086;2023-05-17T13:30:19;13.98;;;3.83;;
37943;SDS011;23767;42.024;23.086;2023-05-17T13:32:45;8.70;;;2.90;;
37943;SDS011;23767;42.024;23.086;2023-05-17T13:35:11;11.15;;;3.67;;
37943;SDS011;23767;42.024;23.086;2023-05-17T13:37:37;9.32;;;3.97;;
37943;SDS011;23767;42.024;23.086;2023-05-17T13:40:03;14.77;;;3.97;;
37943;SDS011;23767;42.024;23.086;2023-05-17T13:42:30;13.55;;;3.90;;
37943;SDS011;23767;42.024;23.086;2023-05-17T13:44:56;10.00;;;3.38;;
37943;SDS011;23767;42.024;23.086;2023-05-17T13:47:22;14.02;;;3.80;;
37943;SDS011;23767;42.024;23.086;2023-05-17T13:49:48;9.52;;;3.15;;
37943;SDS011;23767;42.024;23.086;2023-05-17T13:52:14;10.38;;;2.90;;
37943;SDS011;23767;42.024;23.086;2023-05-17T13:54:42;7.82;;;3.30;;
37943;SDS011;23767;42.024;23.086;2023-05-17T13:57:08;11.70;;;2.80;;
37943;SDS011;23767;42.024;23.086;2023-05-17T13:59:34;10.63;;;3.03;;
37943;SDS011;23767;42.024;23.086;2023-05-17T14:02:00;13.85;;;3.50;;
37943;SDS011;23767;42.024;23.086;2023-05-17T14:04:28;8.13;;;2.95;;
37943;SDS011;23767;42.024;23.086;2023-05-17T14:06:54;11.18;;;3.58;;
37943;SDS011;23767;42.024;23.086;2023-05-17T14:09:20;10.57;;;2.85;;
37943;SDS011;23767;42.024;23.086;2023-05-17T14:11:46;11.05;;;3.47;;
37943;SDS011;23767;42.024;23.086;2023-05-17T14:14:12;12.82;;;3.22;;
37943;SDS011;23767;42.024;23.086;2023-05-17T14:16:38;7.47;;;3.10;;
37943;SDS011;23767;42.024;23.086;2023-05-17T14:19:05;9.50;;;3.72;;
37943;SDS011;23767;42.024;23.086;2023-05-17T14:21:31;16.35;;;3.33;;
37943;SDS011;23767;42.024;23.086;2023-05-17T14:23:57;7.47;;;3.15;;
37943;SDS011;23767;42.024;23.086;2023-05-17T14:26:23;11.80;;;3.70;;
37943;SDS011;23767;42.024;23.086;2023-05-17T14:28:50;12.45;;;3.70;;
37943;SDS011;23767;42.024;23.086;2023-05-17T14:31:16;10.95;;;3.70;;
37943;SDS011;23767;42.024;23.086;2023-05-17T14:33:42;11.65;;;3.53;;
37943;SDS011;23767;42.024;23.086;2023-05-17T14:36:08;8.95;;;3.80;;
37943;SDS011;23767;42.024;23.086;2023-05-17T14:38:35;12.20;;;4.03;;
37943;SDS011;23767;42.024;23.086;2023-05-17T14:41:02;14.13;;;6.32;;
37943;SDS011;23767;42.024;23.086;2023-05-17T14:43:30;16.25;;;6.43;;
37943;SDS011;23767;42.024;23.086;2023-05-17T14:45:56;14.82;;;5.90;;
37943;SDS011;23767;42.024;23.086;2023-05-17T14:48:22;14.85;;;6.70;;
37943;SDS011;23767;42.024;23.086;2023-05-17T14:50:48;14.45;;;6.32;;
37943;SDS011;23767;42.024;23.086;2023-05-17T14:53:17;17.48;;;5.82;;
37943;SDS011;23767;42.024;23.086;2023-05-17T14:55:43;11.38;;;4.65;;
37943;SDS011;23767;42.024;23.086;2023-05-17T14:58:09;11.80;;;4.25;;
37943;SDS011;23767;42.024;23.086;2023-05-17T15:00:37;12.20;;;4.05;;
37943;SDS011;23767;42.024;23.086;2023-05-17T15:03:05;12.50;;;3.88;;
37943;SDS011;23767;42.024;23.086;2023-05-17T15:05:35;14.27;;;4.90;;
37943;SDS011;23767;42.024;23.086;2023-05-17T15:08:02;9.63;;;4.13;;
37943;SDS011;23767;42.024;23.086;2023-05-17T15:10:29;14.43;;;5.18;;
37943;SDS011;23767;42.024;23.086;2023-05-17T15:12:55;14.50;;;5.00;;
37943;SDS011;23767;42.024;23.086;2023-05-17T15:15:21;11.98;;;4.45;;